• Join FlightAware (Why Join?)
  • Login
  • US Flag 
06:13PM EDT


 

Airport Tracker/Info


-or-


 

Live Flight TrackerFlight Track Log ✈ SKW2605 ✈ 04-May-2013 ✈ KSAF - KLAX

Flight Track Log - Related Links

Times and Time Zones

All times are in EDT time to prevent confusion due to time zone crossing. See the SKW2605 flight status page for this flight to view local times or setup timezone preferences in your user account.

Time Position Orientation Groundspeed Altitude Reporting Facility
EDT Latitude Longitude Course Direction KTS MPH feet Rate Location/Type
04:27PM 35.5889 -106.1136 267° West 192 221 7,500  Level Albuquerque Center
04:28PM 35.5461 -106.1614 222° Southwest 210 242 9,800 2,160 Climbing Albuquerque Center
04:29PM 35.5403 -106.2447 265° West 231 266 12,000 2,100 Climbing Albuquerque Center
04:30PM 35.5350 -106.3619 267° West 281 323 14,200 2,280 Climbing Albuquerque Center
04:31PM 35.5103 -106.7910 267° West  Level FlightAware Approximate
04:31PM 35.5303 -106.4644 267° West 300 345 16,700  Level Albuquerque Center
04:32PM 35.5052 -106.9121 267° West  Level FlightAware Approximate
04:32PM 35.5250 -106.5742 267° West 317 365 18,100  Level Albuquerque Center
04:33PM 35.5217 -106.6892 268° West 335 386 20,100 1,800 Climbing Albuquerque Center
04:34PM 35.5167 -106.8022 267° West 335 386 21,800 1,440 Climbing Albuquerque Center
04:35PM 35.5136 -106.9192 268° West 341 392 23,100 1,320 Climbing Albuquerque Center
04:36PM 35.5092 -107.0403 267° West 353 406 24,600 1,020 Climbing Albuquerque Center
04:37PM 35.5036 -107.1897 267° West 362 417 25,300 780 Climbing Albuquerque Center
04:38PM 35.5025 -107.3131 269° West 373 429 26,300 1,020 Climbing Albuquerque Center
04:39PM 35.5008 -107.4589 269° West 380 437 27,400 840 Climbing Albuquerque Center
04:40PM 35.5003 -107.5825 270° West 380 437 28,100 840 Climbing Albuquerque Center
04:41PM 35.4969 -107.7050 268° West 377 434 29,200 1,080 Climbing Albuquerque Center
04:42PM 35.4894 -107.8447 266° West 369 425 30,400 1,020 Climbing Albuquerque Center
04:43PM 35.4711 -107.9639 259° West 368 423 31,300 780 Climbing Albuquerque Center
04:44PM 35.4531 -108.1014 261° West 366 421 32,000 300 Climbing Albuquerque Center
04:45PM 35.4358 -108.2214 260° West 368 423 32,000  Level Albuquerque Center
04:46PM 35.4186 -108.3481 261° West 383 441 32,000  Level Albuquerque Center
04:47PM 35.3975 -108.5000 260° West 398 458 32,000  Level Albuquerque Center
04:48PM 35.3794 -108.6314 260° West 405 466 32,000  Level Albuquerque Center
04:49PM 35.3619 -108.7556 260° West 393 452 32,000  Level Albuquerque Center
04:50PM 35.3417 -108.9003 260° West 386 444 32,000  Level Albuquerque Center
04:51PM 35.3233 -109.0247 260° West 387 445 32,000  Level Albuquerque Center
04:52PM 35.3031 -109.1719 260° West 391 450 32,000  Level Albuquerque Center
04:53PM 35.2847 -109.2972 260° West 390 449 32,000  Level Albuquerque Center
04:55PM 35.2658 -109.4239 260° West 391 450 32,000 120 Level Albuquerque Center
04:56PM 35.2436 -109.5683 259° West 388 447 32,300 600 Climbing Albuquerque Center
04:57PM 35.2247 -109.6922 259° West 387 445 33,300 780 Climbing Albuquerque Center
04:58PM 35.2053 -109.8314 260° West 376 433 34,000 300 Climbing Albuquerque Center
04:59PM 35.1875 -109.9506 260° West 374 430 34,000  Level Albuquerque Center
05:00PM 35.1650 -110.0911 259° West 375 432 34,000  Level Albuquerque Center
05:01PM 35.1453 -110.2131 259° West 379 436 34,000  Level Albuquerque Center
05:02PM 35.1264 -110.3331 259° West 378 435 34,000  Level Albuquerque Center
05:03PM 35.1042 -110.4744 259° West 379 436 34,000  Level Albuquerque Center
05:04PM 35.0833 -110.5953 258° West 379 436 34,000  Level Albuquerque Center
05:05PM 35.0603 -110.7383 259° West 382 440 34,000  Level Albuquerque Center
05:06PM 35.0392 -110.8553 258° West 382 440 34,000  Level Albuquerque Center
05:07PM 35.0197 -110.9817 259° West 381 438 34,000  Level Albuquerque Center
05:08PM 35.0014 -111.1139 260° West 394 453 34,000  Level Albuquerque Center
05:09PM 34.9792 -111.2397 258° West 387 445 34,000  Level Albuquerque Center
05:10PM 34.9561 -111.3931 260° West 384 442 34,000  Level Albuquerque Center
05:11PM 34.9344 -111.5186 258° West 382 440 34,000  Level Albuquerque Center
05:12PM 34.9133 -111.6433 258° West 381 438 34,000  Level Albuquerque Center
05:13PM 34.8914 -111.7792 259° West 382 440 34,000  Level Albuquerque Center
05:14PM 34.8689 -111.9056 258° West 382 440 34,000  Level Albuquerque Center
05:15PM 34.8472 -112.0319 258° West 383 441 34,000  Level Albuquerque Center
05:16PM 34.8250 -112.1586 258° West 383 441 34,000  Level Albuquerque Center
05:17PM 34.8039 -112.2844 258° West 382 440 34,000  Level Albuquerque Center
05:18PM 34.7822 -112.4100 258° West 381 438 34,000  Level Albuquerque Center
05:19PM 34.7603 -112.5367 258° West 382 440 34,000  Level Albuquerque Center
05:20PM 34.7339 -112.6886 258° West 383 441 34,000  Level Albuquerque Center
05:21PM 34.7114 -112.8147 258° West 383 441 34,000  Level Albuquerque Center
05:22PM 34.6894 -112.9406 258° West 382 440 34,000  Level Albuquerque Center
05:23PM 34.6664 -113.0661 257° West 381 438 34,000  Level Albuquerque Center
05:24PM 34.6436 -113.1928 258° West 383 441 34,000  Level Albuquerque Center
05:25PM 34.6206 -113.3189 258° West 383 441 34,000  Level Albuquerque Center
05:26PM 34.5983 -113.4467 258° West 385 443 34,000  Level Albuquerque Center
05:27PM 34.5744 -113.5983 259° West 384 442 34,000  Level Albuquerque Center
05:28PM 34.5522 -113.7222 258° West 382 440 34,000  Level Albuquerque Center
05:29PM 34.5339 -113.8458 260° West 378 435 34,000  Level Albuquerque Center
05:30PM 34.5142 -113.9706 259° West 376 433 34,000  Level Albuquerque Center
05:32PM 34.4925 -114.0981 258° West 378 435 34,000  Level Albuquerque Center
05:32PM 34.4806 -114.1656 258° West 382 440 34,000  Level Los Angeles Center
05:33PM 34.4603 -114.2906 259° West 380 437 34,000  Level Los Angeles Center
05:34PM 34.4389 -114.4161 258° West 380 437 34,000  Level Los Angeles Center
05:35PM 34.4131 -114.5678 258° West 384 442 34,000  Level Los Angeles Center
05:36PM 34.3928 -114.6928 259° West 382 440 34,000  Level Los Angeles Center
05:37PM 34.3708 -114.8189 258° West 382 440 34,000  Level Los Angeles Center
05:38PM 34.3503 -114.9433 259° West 380 437 34,000  Level Los Angeles Center
05:39PM 34.3281 -115.0689 258° West 381 438 34,000  Level Los Angeles Center
05:40PM 34.3064 -115.1931 258° West 381 438 34,000  Level Los Angeles Center
05:41PM 34.2800 -115.3419 258° West 380 437 34,000  Level Los Angeles Center
05:43PM 34.2583 -115.4658 258° West 380 437 34,000  Level Los Angeles Center
05:44PM 34.2314 -115.6133 258° West 376 433 34,000  Level Los Angeles Center
05:45PM 34.2092 -115.7364 258° West 376 433 34,000 -300 Level Los Angeles Center
05:46PM 34.1872 -115.8600 258° West 377 434 33,400 -1,080 Descending Los Angeles Center
05:47PM 34.1631 -115.9892 257° West 379 436 31,800 -1,500 Descending Los Angeles Center
05:48PM 34.1406 -116.1156 258° West 383 441 30,300 -1,680 Descending Los Angeles Center
05:49PM 34.1144 -116.2575 258° West 380 437 28,400 -1,800 Descending Los Angeles Center
05:50PM 34.0919 -116.3836 258° West 384 442 26,700 -1,500 Descending Los Angeles Center
05:51PM 34.0694 -116.5050 257° West 375 432 25,000 -1,620 Descending Los Angeles Center
05:52PM 34.0428 -116.6467 257° West 364 419 23,100 -1,860 Descending Los Angeles Center
05:53PM 34.0167 -116.7861 257° West 358 412 21,200 -1,680 Descending Los Angeles Center
05:54PM 33.9942 -116.9006 257° West 356 410 19,700 -1,500 Descending Los Angeles Center
05:54PM 33.9833 -116.9500 255° West 343 395 19,100 -1,620 Descending Southern California TRACON
05:55PM 33.9667 -117.0667 260° West 339 390 17,500 -1,260 Descending Southern California TRACON
05:56PM 33.9500 -117.1667 259° West 333 383 16,600 -1,080 Descending Southern California TRACON
05:57PM 33.9333 -117.2833 260° West 324 373 15,400 -1,200 Descending Southern California TRACON
05:58PM 33.9333 -117.3833 270° West 324 373 14,300 -1,140 Descending Southern California TRACON
05:59PM 33.9667 -117.4833 292° West 297 342 13,200 -1,200 Descending Southern California TRACON
06:00PM 34.0000 -117.5667 296° West 298 343 11,900 -1,260 Descending Southern California TRACON
06:01PM 34.0000 -117.6667 270° West 312 359 10,700 -1,260 Descending Southern California TRACON
06:02PM 34.0000 -117.7667 270° West 281 323 9,400 -1,200 Descending Southern California TRACON
06:03PM 33.9833 -117.8500 256° West 278 320 8,400 -1,140 Descending Southern California TRACON
06:04PM 33.9833 -117.9500 270° West 281 323 7,200 -1,200 Descending Southern California TRACON
06:05PM 33.9667 -118.0500 259° West 269 310 6,000 -1,200 Descending Southern California TRACON
06:06PM 33.9667 -118.1333 270° West 266 306 4,900 -660 Descending Southern California TRACON
06:07PM 33.9500 -118.2167 256° West 212 244 4,700 -240 Descending Southern California TRACON
06:08PM 33.9547 -118.2117 41° Northeast 232 267 4,600 -1,320 Descending Los Angeles Center
06:09PM 33.9483 -118.2753 263° West 171 197 3,100 -1,560 Descending Los Angeles Center
06:10PM 33.9442 -118.3261 264° West 160 184 1,500 -1,320 Descending Los Angeles Center
06:11PM 33.9397 -118.3722 263° West 150 173 400 -660 Descending Los Angeles Center
06:12PM 33.9342 -118.4167 261° West 148 170 200 -240 Descending Los Angeles Center